Virtual Airlines Manager

 METAR AND TAF INFORMATION
METAR FOR KSAN
ADDS - METARS form results

(1030 UTC 19 November 2017)
Data provider http://aviationweather.gov/adds/metars/
 
METAR text: KSAN 190951Z 06004KT 1/4SM R09/1200V1600FT FG OVC003 15/14 A3007 RMK AO2 SLP181 T01500144
Conditions at: KSAN (SAN DIEGO , CA, US) observed 0951 UTC 19 November 2017
Temperature: 15.0°C (59°F)
Dewpoint: 14.4°C (58°F) [RH = 96%]
Pressure (altimeter): 30.07 inches Hg (1018.4 mb)
[Sea-level pressure: 1018.1 mb]
Winds: from the ENE (60 degrees) at 5 MPH (4 knots; 2.1 m/s)
Visibility: 0.25 miles (0.40 km)
Ceiling: 300 feet AGL
Clouds: overcast cloud deck at 300 feet AGL
Weather: FG  (fog)

METAR text: KSAN 190946Z 03004KT 1/4SM R09/1200V1600FT FG OVC003 15/15 A3007 RMK AO2
Conditions at: KSAN (SAN DIEGO , CA, US) observed 0946 UTC 19 November 2017
Temperature: 15.0°C (59°F)
Dewpoint: 15.0°C (59°F) [RH = 100%]
Pressure (altimeter): 30.07 inches Hg (1018.4 mb)
Winds: from the NNE (30 degrees) at 5 MPH (4 knots; 2.1 m/s)
Visibility: 0.25 miles (0.40 km)
Ceiling: 300 feet AGL
Clouds: overcast cloud deck at 300 feet AGL
Weather: FG  (fog)

METAR text: KSAN 190939Z 00000KT 1/4SM R09/1400V2400FT FG OVC003 15/15 A3007 RMK AO2 T01500150
Conditions at: KSAN (SAN DIEGO , CA, US) observed 0939 UTC 19 November 2017
Temperature: 15.0°C (59°F)
Dewpoint: 15.0°C (59°F) [RH = 100%]
Pressure (altimeter): 30.07 inches Hg (1018.4 mb)
Winds: calm
Visibility: 0.25 miles (0.40 km)
Ceiling: 300 feet AGL
Clouds: overcast cloud deck at 300 feet AGL
Weather: FG  (fog)

METAR text: KSAN 190931Z 05003KT 1/2SM R09/2200VP6000FT FG OVC003 16/15 A3007 RMK AO2 T01560150
Conditions at: KSAN (SAN DIEGO , CA, US) observed 0931 UTC 19 November 2017
Temperature: 15.6°C (60°F)
Dewpoint: 15.0°C (59°F) [RH = 96%]
Pressure (altimeter): 30.07 inches Hg (1018.4 mb)
Winds: from the NE (50 degrees) at 3 MPH (3 knots; 1.6 m/s)
Visibility: 0.50 miles (0.80 km)
Ceiling: 300 feet AGL
Clouds: overcast cloud deck at 300 feet AGL
Weather: FG  (fog)

Forecast for: KSAN (SAN DIEGO , CA, US)
Text: KSAN 190942Z 1910/2012 VRB04KT 6SM HZ VCFG SCT005 SCT200
Forecast period: 1000 to 1600 UTC 19 November 2017
Forecast type: FROM: standard forecast or significant change
Winds: variable direction winds at 5 MPH (4 knots; 2.1 m/s)
Visibility: 6 miles (10 km)
Clouds: scattered clouds at 500 feet AGL
scattered clouds at 20000 feet AGL
Weather: HZ VCFG  (haze, fog in vicinity)
Text: TEMPO 1910/1912 1/4SM FG BKN003
Forecast period: 1000 to 1200 UTC 19 November 2017
Forecast type: TEMPORARY: The following changes expected for less than half the time period
Visibility: 0.25 miles (0.40 km)
Ceiling: 300 feet AGL
Clouds: broken clouds at 300 feet AGL
Weather: FG  (fog)
Text: FM191600 VRB04KT P6SM FEW005 FEW200
Forecast period: 1600 to 2100 UTC 19 November 2017
Forecast type: FROM: standard forecast or significant change
Winds: variable direction winds at 5 MPH (4 knots; 2.1 m/s)
Visibility: 6 or more miles (10+ km)
Clouds: few clouds at 500 feet AGL
few clouds at 20000 feet AGL
Weather: no significant weather forecast for this period
Text: FM192100 30011KT P6SM SCT200
Forecast period: 2100 UTC 19 November 2017 to 1200 UTC 20 November 2017
Forecast type: FROM: standard forecast or significant change
Winds: from the WNW (300 degrees) at 13 MPH (11 knots; 5.7 m/s)
Visibility: 6 or more miles (10+ km)
Clouds: scattered clouds at 20000 feet AGL
Weather: no significant weather forecast for this period

 AIRPORT MAP

 RUNWAY INFORMATION
Runway 09 Runway length 9401 ft Runway width 200 ft
Runway elevation 14 ft Runway displaced threshold 700 ft Runway heading 106
Runway 27 Runway length 9401 ft Runway width 200 ft
Runway elevation 13 ft Runway displaced threshold 1810 ft Runway heading 286

 AIRPORT FREQUENCIES
Type A/D Name SOCAL APP/ Frequency 119.6 MHZ
Type ATIS Name ATIS Frequency 134.8 MHZ
Type CLD Name CLNC DEL Frequency 125.9 MHZ
Type GND Name GND Frequency 123.9 MHZ
Type MISC Name CG Frequency 157.15 MHZ
Type MISC Name CG Frequency 898.4 MHZ
Type TWR Name LINDBERGH Frequency 118.3 MHZ
Type UNIC Name UNICOM Frequency 122.95 MHZ

 AIRPORT NEAR NAVIGATION AIDS
Type NDB Name Boing Frequency 245 KHZ



Powered by Virtual Airlines Manager [v2.6.2]